Time;durP1;ratioP1;P1;durP2;ratioP2;P2;SDS_P1;SDS_P2;PMS_P1;PMS_P2;Temp;Humidity;BMP_temperature;BMP_pressure;BME280_temperature;BME280_humidity;BME280_pressure;Samples;Min_cycle;Max_cycle;Signal;HPM_P1;HPM_P2
2022/04/01 00:02:19;;;;;;;;;0.67;0.67;;;;;5.92;49.39;100086.56;5014771;28;45719;-73
2022/04/01 00:04:45;;;;;;;;;1.67;1.00;;;;;5.89;49.67;100075.25;5014517;28;45499;-73
2022/04/01 00:07:11;;;;;;;;;3.00;2.00;;;;;5.92;48.73;100074.84;5013431;28;45453;-73
2022/04/01 00:09:37;;;;;;;;;2.00;2.00;;;;;5.86;48.76;100064.75;5006415;28;45826;-74
2022/04/01 00:12:05;;;;;;;;;3.33;1.00;;;;;5.81;49.39;100058.00;5013866;28;46050;-73
2022/04/01 00:14:30;;;;;;;;;3.00;0.33;;;;;5.84;50.45;100054.06;5014489;28;45364;-73
2022/04/01 00:16:56;;;;;;;;;2.33;2.33;;;;;5.89;49.78;100054.31;5013966;28;45815;-73
2022/04/01 00:19:21;;;;;;;;;4.00;1.33;;;;;5.89;50.11;100058.91;5013357;28;45505;-72
2022/04/01 00:21:47;;;;;;;;;2.67;1.67;;;;;5.82;48.95;100064.28;5014107;28;46384;-73
2022/04/01 00:24:12;;;;;;;;;4.00;1.00;;;;;5.67;49.54;100050.75;5013138;28;45726;-73
2022/04/01 00:26:38;;;;;;;;;2.00;2.00;;;;;5.66;49.77;100052.63;5012985;28;45495;-74
2022/04/01 00:29:14;;;;;;;;;2.33;1.00;;;;;5.66;49.96;100054.53;5014047;28;45846;-73
2022/04/01 00:31:44;;;;;;;;;1.00;1.00;;;;;5.73;50.30;100066.28;5009293;28;45692;-73
2022/04/01 00:34:15;;;;;;;;;4.00;1.00;;;;;5.71;49.98;100057.50;5011175;28;45588;-72
2022/04/01 00:36:45;;;;;;;;;0.00;0.00;;;;;5.77;49.42;100051.25;5004779;28;45959;-72
2022/04/01 00:39:12;;;;;;;;;2.00;0.33;;;;;5.84;49.65;100060.34;5013275;28;45513;-73
2022/04/01 00:41:38;;;;;;;;;1.00;1.00;;;;;5.84;49.89;100057.63;5002551;28;46787;-72
2022/04/01 00:44:20;;;;;;;;;3.00;1.00;;;;;5.76;49.66;100046.88;4988105;28;46332;-72
2022/04/01 00:46:51;;;;;;;;;2.00;1.00;;;;;5.74;49.78;100050.81;5002295;28;45616;-72
2022/04/01 00:49:18;;;;;;;;;4.67;2.00;;;;;5.68;51.18;100051.59;5005962;28;45638;-72
2022/04/01 00:51:45;;;;;;;;;0.33;0.33;;;;;5.66;50.15;100049.91;4994004;28;47148;-72
2022/04/01 00:54:11;;;;;;;;;2.00;1.00;;;;;5.69;50.45;100045.09;5003713;28;45582;-73
2022/04/01 00:56:38;;;;;;;;;2.00;0.67;;;;;5.73;50.59;100036.34;5005320;28;45868;-73
2022/04/01 00:59:05;;;;;;;;;2.33;0.67;;;;;5.72;50.63;100034.69;5005177;28;45737;-73
2022/04/01 01:01:31;;;;;;;;;2.00;0.00;;;;;5.65;49.73;100026.47;5012968;28;45480;-74
2022/04/01 01:04:00;;;;;;;;;2.00;1.00;;;;;5.70;50.29;100023.16;5005536;28;45395;-75
2022/04/01 01:06:26;;;;;;;;;0.00;0.00;;;;;5.81;50.32;100008.19;5007767;28;45675;-72
2022/04/01 01:08:52;;;;;;;;;1.00;0.67;;;;;5.89;50.07;100021.66;5011977;28;45618;-74
2022/04/01 01:11:18;;;;;;;;;3.33;2.00;;;;;5.83;50.27;100001.50;5011376;28;45442;-72
2022/04/01 01:13:44;;;;;;;;;1.00;1.00;;;;;5.91;50.78;99996.97;5012787;28;45431;-72
2022/04/01 01:16:09;;;;;;;;;1.00;0.00;;;;;5.95;50.98;99984.66;5013565;28;45377;-72
2022/04/01 01:18:35;;;;;;;;;2.00;1.00;;;;;6.00;51.52;99993.09;5006807;28;45772;-73
2022/04/01 01:21:01;;;;;;;;;1.00;1.00;;;;;6.11;51.47;100003.44;4994114;28;46161;-72
2022/04/01 01:23:29;;;;;;;;;0.00;0.00;;;;;6.16;51.96;99983.78;5005481;28;45379;-72
2022/04/01 01:25:55;;;;;;;;;4.67;0.00;;;;;6.26;51.82;99984.28;5005816;28;45503;-72
2022/04/01 01:28:22;;;;;;;;;0.67;0.67;;;;;6.33;50.77;99979.72;5012725;28;45605;-73
2022/04/01 01:30:48;;;;;;;;;0.00;0.00;;;;;6.39;52.30;99945.38;4993861;28;48572;-73
2022/04/01 01:33:14;;;;;;;;;1.00;1.00;;;;;6.29;51.16;99973.00;5012699;28;45828;-71
2022/04/01 01:35:41;;;;;;;;;3.67;1.00;;;;;6.36;50.99;99973.00;5012772;28;45731;-72
2022/04/01 01:38:08;;;;;;;;;0.67;0.00;;;;;6.44;52.21;99974.75;4991959;28;46444;-73
2022/04/01 01:40:33;;;;;;;;;1.00;1.00;;;;;6.36;51.69;99975.75;5001186;28;45712;-72
2022/04/01 01:42:59;;;;;;;;;5.00;0.00;;;;;6.38;52.33;99953.75;5001232;28;45649;-71
2022/04/01 01:45:26;;;;;;;;;4.00;1.00;;;;;6.34;52.31;99964.22;5010636;28;45443;-72
2022/04/01 01:47:51;;;;;;;;;0.00;0.00;;;;;6.36;53.52;99943.91;5012925;28;45308;-72
2022/04/01 01:55:44;;;;;;;;;1.00;1.00;;;;;6.36;52.44;99924.00;5011777;28;45296;-72
2022/04/01 01:58:10;;;;;;;;;0.33;0.33;;;;;6.41;52.51;99932.41;5011819;28;45948;-73
2022/04/01 02:00:35;;;;;;;;;1.00;0.33;;;;;6.40;52.98;99919.84;5009627;28;47145;-71
2022/04/01 02:03:01;;;;;;;;;2.67;1.00;;;;;6.34;53.19;99920.63;5012004;28;45671;-73
2022/04/01 02:05:26;;;;;;;;;3.00;1.00;;;;;6.43;52.70;99924.03;5012674;28;45927;-74
2022/04/01 02:07:53;;;;;;;;;0.33;0.33;;;;;6.40;53.17;99917.09;5012371;28;45780;-73
2022/04/01 02:10:19;;;;;;;;;3.67;1.00;;;;;6.45;53.23;99917.34;5012717;28;45837;-73
2022/04/01 02:12:44;;;;;;;;;1.33;0.67;;;;;6.52;53.74;99920.09;5011765;28;45368;-72
2022/04/01 02:15:10;;;;;;;;;2.00;0.00;;;;;6.53;53.33;99919.91;5012187;28;45375;-72
2022/04/01 02:17:40;;;;;;;;;2.67;2.00;;;;;6.54;54.28;99899.78;5012157;28;45360;-73
2022/04/01 02:20:09;;;;;;;;;2.00;2.00;;;;;6.61;54.57;99910.69;5011537;28;45465;-73
2022/04/01 02:22:38;;;;;;;;;1.67;1.67;;;;;6.66;54.65;99907.38;5011868;28;45442;-73
2022/04/01 02:25:07;;;;;;;;;1.00;1.00;;;;;6.65;54.68;99895.63;5002955;28;45375;-73
2022/04/01 02:27:33;;;;;;;;;4.00;2.67;;;;;6.65;56.09;99902.97;4997063;28;45791;-72
2022/04/01 02:29:59;;;;;;;;;5.00;1.00;;;;;6.59;55.39;99906.53;5002491;28;45700;-73
2022/04/01 02:32:25;;;;;;;;;1.00;1.00;;;;;6.60;55.73;99902.72;5011605;28;45386;-71
2022/04/01 02:34:51;;;;;;;;;1.00;1.00;;;;;6.60;55.02;99894.56;5004559;28;45678;-71
2022/04/01 02:37:21;;;;;;;;;2.00;1.00;;;;;6.61;55.60;99890.81;5009475;28;45591;-73
2022/04/01 02:39:46;;;;;;;;;2.00;2.00;;;;;6.64;56.92;99893.13;5011906;28;45691;-73
2022/04/01 02:42:12;;;;;;;;;3.00;1.00;;;;;6.65;56.30;99892.91;5011234;28;45796;-72
2022/04/01 02:44:37;;;;;;;;;1.00;1.00;;;;;6.62;56.10;99920.56;5003629;28;45419;-72
2022/04/01 02:47:03;;;;;;;;;0.67;0.67;;;;;6.60;57.42;99895.41;5012233;28;45498;-72
2022/04/01 02:49:29;;;;;;;;;1.00;1.00;;;;;6.63;56.39;99892.28;4999123;28;48286;-73
2022/04/01 02:51:55;;;;;;;;;0.67;0.67;;;;;6.59;56.77;99892.91;5011661;28;45744;-72
2022/04/01 02:54:21;;;;;;;;;1.00;1.00;;;;;6.58;57.30;99893.94;4988564;28;45437;-72
2022/04/01 02:56:47;;;;;;;;;1.00;1.00;;;;;6.59;56.71;99890.19;5011471;28;45709;-71
2022/04/01 02:59:12;;;;;;;;;2.00;0.33;;;;;6.57;57.73;99897.69;5011562;28;45710;-73
2022/04/01 03:01:40;;;;;;;;;2.00;0.67;;;;;6.56;57.77;99891.41;5002746;28;45352;-72
2022/04/01 03:04:09;;;;;;;;;1.00;1.00;;;;;6.54;57.11;99888.91;5010834;28;45855;-71
2022/04/01 03:06:39;;;;;;;;;0.00;0.00;;;;;6.54;58.23;99883.44;5011354;28;45687;-72
2022/04/01 03:09:06;;;;;;;;;3.00;2.00;;;;;6.41;57.93;99887.97;5004296;28;45977;-71
2022/04/01 03:11:31;;;;;;;;;1.67;1.00;;;;;6.44;58.36;99883.00;5011673;28;45537;-71
2022/04/01 03:13:57;;;;;;;;;2.33;1.00;;;;;6.44;58.15;99890.31;5011222;28;45829;-71
2022/04/01 03:16:23;;;;;;;;;1.00;1.00;;;;;6.40;57.92;99881.72;4988866;28;46940;-71
2022/04/01 03:18:49;;;;;;;;;0.00;0.00;;;;;6.41;58.44;99877.94;5000713;28;46216;-71
2022/04/01 03:21:15;;;;;;;;;1.00;1.00;;;;;6.40;59.09;99876.25;5012003;28;45567;-71
2022/04/01 03:23:43;;;;;;;;;2.00;0.33;;;;;6.36;58.71;99864.09;5005345;28;45690;-71
2022/04/01 03:26:09;;;;;;;;;1.00;1.00;;;;;6.35;57.98;99859.69;5010393;28;45670;-72
2022/04/01 03:28:35;;;;;;;;;2.00;2.00;;;;;6.38;58.15;99856.56;5010986;28;45425;-73
2022/04/01 03:31:04;;;;;;;;;2.00;1.33;;;;;6.38;58.39;99855.72;5011124;28;45897;-72
2022/04/01 03:33:34;;;;;;;;;2.00;1.00;;;;;6.46;58.54;99863.72;4991044;28;45436;-73
2022/04/01 03:36:00;;;;;;;;;3.00;1.50;;;;;6.48;57.54;99861.63;5008047;28;45320;-72
2022/04/01 03:38:26;;;;;;;;;2.00;0.00;;;;;6.45;58.35;99846.53;5004854;28;45777;-74
2022/04/01 03:40:52;;;;;;;;;1.00;0.00;;;;;6.38;57.86;99852.97;5011394;28;45389;-74
2022/04/01 03:43:23;;;;;;;;;1.00;0.00;;;;;6.36;59.08;99845.03;5011169;28;45774;-73
2022/04/01 03:45:51;;;;;;;;;0.00;0.00;;;;;6.34;58.35;99853.38;5011541;28;46152;-74
2022/04/01 03:48:35;;;;;;;;;1.00;0.00;;;;;6.33;58.39;99853.59;5003713;28;45715;-74
2022/04/01 03:51:01;;;;;;;;;2.33;1.00;;;;;6.30;57.72;99851.28;5003077;28;45934;-76
2022/04/01 03:53:29;;;;;;;;;0.00;0.00;;;;;6.23;58.31;99843.09;5011174;28;45439;-74
2022/04/01 03:55:59;;;;;;;;;0.00;0.00;;;;;6.28;58.35;99851.47;5011388;28;45718;-73
2022/04/01 03:58:30;;;;;;;;;0.33;0.00;;;;;6.30;59.19;99848.56;5011159;28;45428;-72
2022/04/01 04:01:00;;;;;;;;;1.00;1.00;;;;;6.24;57.67;99849.38;5011845;28;45631;-74
2022/04/01 04:03:27;;;;;;;;;1.67;1.00;;;;;6.20;57.61;99838.06;5002922;28;45615;-72
2022/04/01 04:05:53;;;;;;;;;2.00;1.00;;;;;6.24;58.60;99860.25;5009139;28;45618;-73
2022/04/01 04:08:20;;;;;;;;;2.00;0.00;;;;;6.26;57.93;99852.75;5005945;28;45479;-71
2022/04/01 04:10:47;;;;;;;;;1.33;1.00;;;;;6.30;58.24;99848.56;5002924;28;45392;-72
2022/04/01 04:13:15;;;;;;;;;2.33;2.00;;;;;6.29;57.97;99841.44;4989467;28;45364;-73
2022/04/01 04:15:49;;;;;;;;;0.33;0.33;;;;;6.39;58.07;99852.78;4988572;28;45704;-73
2022/04/01 04:18:17;;;;;;;;;0.33;0.33;;;;;6.46;57.54;99848.19;5006425;28;45689;-72
2022/04/01 04:21:01;;;;;;;;;2.00;1.00;;;;;6.45;57.24;99849.28;5006092;28;45403;-73
2022/04/01 04:23:35;;;;;;;;;3.00;1.00;;;;;6.47;57.37;99852.63;5014169;28;45442;-74
2022/04/01 04:26:05;;;;;;;;;3.33;3.00;;;;;6.47;57.73;99855.34;5014132;28;45451;-72
2022/04/01 04:28:37;;;;;;;;;1.00;1.00;;;;;6.57;56.33;99845.94;5014054;28;46065;-71
2022/04/01 04:31:05;;;;;;;;;3.33;2.00;;;;;6.48;55.89;99854.31;5014479;28;45439;-72
2022/04/01 04:33:31;;;;;;;;;3.00;3.00;;;;;6.48;56.59;99848.00;5006094;28;45383;-73
2022/04/01 04:36:04;;;;;;;;;1.00;1.00;;;;;6.42;56.11;99860.56;5013355;28;45679;-69
2022/04/01 04:38:37;;;;;;;;;2.33;2.33;;;;;6.47;56.88;99855.34;5010118;28;45831;-71
2022/04/01 04:41:08;;;;;;;;;3.00;1.67;;;;;6.50;56.99;99860.38;5009697;28;45725;-72
2022/04/01 04:43:38;;;;;;;;;1.33;1.00;;;;;6.44;55.75;99855.75;5013787;28;45446;-74
2022/04/01 04:46:05;;;;;;;;;0.33;0.33;;;;;6.47;56.23;99855.34;5006442;28;45451;-72
2022/04/01 04:48:32;;;;;;;;;2.00;2.00;;;;;6.50;57.11;99862.28;5014110;28;45700;-73
2022/04/01 04:50:59;;;;;;;;;3.00;3.00;;;;;6.49;56.36;99861.41;5011793;28;45312;-75
2022/04/01 04:53:28;;;;;;;;;1.67;1.67;;;;;6.58;55.53;99867.53;5014447;28;45699;-72
2022/04/01 04:55:57;;;;;;;;;3.67;1.00;;;;;6.56;55.64;99872.34;4999890;28;45849;-71
2022/04/01 04:58:29;;;;;;;;;1.00;1.00;;;;;6.53;55.23;99870.88;5006982;28;45698;-72
2022/04/01 05:01:01;;;;;;;;;1.67;1.67;;;;;6.58;56.00;99872.97;5012983;28;46003;-73
2022/04/01 05:03:52;;;;;;;;;0.33;0.33;;;;;6.50;54.94;99871.28;5012323;28;45459;-72
2022/04/01 05:06:26;;;;;;;;;2.00;1.00;;;;;6.40;54.22;99891.78;4979306;28;45702;-72
2022/04/01 05:09:00;;;;;;;;;2.67;1.67;;;;;6.35;54.42;99889.66;5009877;28;45526;-72
2022/04/01 05:11:38;;;;;;;;;2.00;2.00;;;;;6.28;53.58;99899.66;5008447;28;45472;-75
2022/04/01 05:14:25;;;;;;;;;2.00;2.00;;;;;6.21;53.58;99898.78;5007559;28;45308;-73
2022/04/01 05:17:02;;;;;;;;;2.00;2.00;;;;;6.08;53.57;99907.72;5008718;28;45470;-72
2022/04/01 05:19:30;;;;;;;;;1.00;1.00;;;;;6.10;54.26;99901.03;5012549;28;45615;-72
2022/04/01 05:22:07;;;;;;;;;1.00;1.00;;;;;6.15;55.03;99909.44;5013332;28;45767;-71
2022/04/01 05:24:41;;;;;;;;;3.00;3.00;;;;;6.18;55.49;99900.03;5007529;28;45643;-74
2022/04/01 05:27:29;;;;;;;;;2.67;2.67;;;;;6.16;55.29;99908.38;5009135;28;45273;-74
2022/04/01 05:30:23;;;;;;;;;1.33;1.33;;;;;6.22;56.07;99916.81;5010750;28;46459;-73
2022/04/01 05:33:14;;;;;;;;;3.00;2.67;;;;;6.17;55.07;99903.81;5005903;28;45541;-75
2022/04/01 05:35:41;;;;;;;;;1.33;1.33;;;;;6.11;55.63;99910.06;5007695;28;45719;-72
2022/04/01 05:38:08;;;;;;;;;3.00;2.00;;;;;6.07;56.09;99909.59;5012464;28;45881;-72
2022/04/01 05:40:35;;;;;;;;;3.33;2.33;;;;;6.14;56.07;99912.38;5011873;28;46525;-73
2022/04/01 05:43:07;;;;;;;;;2.00;2.00;;;;;6.09;55.47;99901.22;5012076;28;45838;-74
2022/04/01 05:45:32;;;;;;;;;2.00;2.00;;;;;6.07;56.19;99922.38;5005392;28;45418;-70
2022/04/01 05:47:59;;;;;;;;;2.00;2.00;;;;;6.00;55.16;99927.75;5012632;28;45905;-74
2022/04/01 05:50:28;;;;;;;;;2.00;2.00;;;;;5.91;55.80;99916.16;5010530;28;47031;-73
2022/04/01 05:52:54;;;;;;;;;3.00;3.00;;;;;5.88;56.69;99923.88;5011458;28;45539;-73
2022/04/01 05:55:25;;;;;;;;;1.00;1.00;;;;;5.83;56.75;99930.75;5011083;28;46528;-74
2022/04/01 05:57:54;;;;;;;;;3.00;3.00;;;;;5.86;57.97;99931.41;5012978;28;45920;-73
2022/04/01 06:00:20;;;;;;;;;2.00;2.00;;;;;5.86;57.43;99934.13;4991763;28;47415;-73
2022/04/01 06:03:07;;;;;;;;;3.00;2.67;;;;;5.97;57.78;99941.78;4991313;28;45743;-76
2022/04/01 06:06:12;;;;;;;;;2.00;2.00;;;;;5.91;58.15;99954.25;4993466;28;45737;-72
2022/04/01 06:08:56;;;;;;;;;8.00;3.00;;;;;5.79;58.97;99944.97;4986835;28;45497;-75
2022/04/01 06:11:44;;;;;;;;;5.00;3.67;;;;;5.78;60.60;99957.72;4991267;28;46347;-73
2022/04/01 06:14:35;;;;;;;;;6.33;4.33;;;;;5.77;59.22;99964.19;4990912;28;45451;-72
2022/04/01 06:17:08;;;;;;;;;4.00;4.00;;;;;5.71;59.85;99967.72;4989164;28;45414;-72
2022/04/01 06:19:44;;;;;;;;;2.00;2.00;;;;;5.67;60.33;99963.69;4973455;28;45766;-73
2022/04/01 06:22:20;;;;;;;;;7.33;5.67;;;;;5.49;60.37;99966.88;4989564;28;45726;-72
2022/04/01 06:25:13;;;;;;;;;6.33;5.00;;;;;5.37;61.64;99968.44;4971886;28;45722;-73
2022/04/01 06:27:46;;;;;;;;;2.33;2.33;;;;;5.42;62.73;99971.41;4986030;28;45363;-70
2022/04/01 06:30:17;;;;;;;;;4.00;4.00;;;;;5.54;61.82;99988.06;4990736;28;45769;-74
2022/04/01 06:32:52;;;;;;;;;5.00;5.00;;;;;5.57;61.89;99988.53;4988268;28;46320;-74
2022/04/01 06:35:28;;;;;;;;;5.00;3.67;;;;;5.59;61.89;99988.31;4992107;28;45297;-76
2022/04/01 06:38:05;;;;;;;;;3.33;3.33;;;;;5.56;63.10;99989.56;4992259;28;45877;-75
2022/04/01 06:40:58;;;;;;;;;4.00;4.00;;;;;5.54;62.12;99996.22;4990196;28;45752;-75
2022/04/01 06:43:25;;;;;;;;;4.00;4.00;;;;;5.48;61.75;99992.41;4991537;28;46391;-77
2022/04/01 06:45:50;;;;;;;;;6.33;4.67;;;;;5.45;62.84;99998.25;4990916;28;45839;-73
2022/04/01 06:48:16;;;;;;;;;5.00;4.00;;;;;5.42;63.10;100004.91;4992796;28;45448;-74
2022/04/01 06:50:49;;;;;;;;;4.00;4.00;;;;;5.38;63.35;100014.47;4983107;28;45684;-75
2022/04/01 06:53:17;;;;;;;;;5.00;4.00;;;;;5.46;63.36;100006.22;4991730;28;45646;-72
2022/04/01 06:55:44;;;;;;;;;4.00;4.00;;;;;5.54;63.98;100001.66;4987941;28;45801;-75
2022/04/01 06:58:11;;;;;;;;;4.00;4.00;;;;;5.63;63.06;100011.38;4988115;28;45715;-74
2022/04/01 07:00:38;;;;;;;;;4.00;4.00;;;;;5.69;62.01;100015.19;4991536;28;46621;-74
2022/04/01 07:03:03;;;;;;;;;4.33;4.33;;;;;5.73;62.59;100019.22;4987024;28;46715;-73
2022/04/01 07:05:29;;;;;;;;;6.33;6.33;;;;;5.79;62.18;100005.69;4990060;28;45463;-73
2022/04/01 07:07:54;;;;;;;;;5.00;4.33;;;;;5.71;62.25;100024.00;4996794;28;45326;-74
2022/04/01 07:10:20;;;;;;;;;4.33;4.33;;;;;5.66;61.29;100033.59;4991756;28;45443;-73
2022/04/01 07:12:45;;;;;;;;;5.00;5.00;;;;;5.61;62.07;100029.75;4995755;28;45650;-74
2022/04/01 07:15:11;;;;;;;;;8.67;7.00;;;;;5.58;62.37;100024.72;4990509;28;45609;-73
2022/04/01 07:17:37;;;;;;;;;6.67;4.00;;;;;5.58;62.07;100030.97;4991474;28;45574;-74
2022/04/01 07:20:03;;;;;;;;;7.33;5.67;;;;;5.59;61.47;100031.84;4984966;28;47121;-74
2022/04/01 07:22:29;;;;;;;;;4.00;4.00;;;;;5.61;61.45;100037.94;5035533;22;46152;-80
2022/04/01 07:24:54;;;;;;;;;6.33;6.33;;;;;5.55;62.61;100036.81;5001661;28;45413;-81
2022/04/01 07:27:21;;;;;;;;;9.33;7.67;;;;;5.40;63.46;100031.44;5021659;28;45442;-80
2022/04/01 07:29:51;;;;;;;;;8.00;8.00;;;;;5.43;63.63;100050.09;5029550;28;45657;-85
2022/04/01 07:32:44;;;;;;;;;;;;;;;;;;;;;
2022/04/01 07:35:14;;;;;;;;;5.00;5.00;;;;;5.12;62.69;100005.00;5021039;28;72688;-84
2022/04/01 07:37:42;;;;;;;;;8.33;8.00;;;;;5.26;63.32;100016.03;5017178;28;45527;-85
2022/04/01 07:40:09;;;;;;;;;7.67;5.00;;;;;4.99;64.24;99980.38;5017328;28;45625;-83
2022/04/01 07:42:38;;;;;;;;;8.00;8.00;;;;;5.33;64.30;100035.97;5016933;28;47434;-82
2022/04/01 07:45:05;;;;;;;;;4.67;4.67;;;;;5.21;63.56;100010.31;5023780;28;45939;-83
2022/04/01 07:47:34;;;;;;;;;7.67;6.67;;;;;5.42;63.38;100058.44;5038977;28;45605;-83
2022/04/01 07:50:03;;;;;;;;;10.00;10.00;;;;;5.35;62.53;100052.94;5026468;28;45569;-80
2022/04/01 07:52:29;;;;;;;;;5.33;5.00;;;;;5.49;62.56;100064.78;5017030;28;46729;-81
2022/04/01 07:54:58;;;;;;;;;7.67;7.67;;;;;5.62;62.52;100070.38;5026003;28;45950;-81
2022/04/01 07:57:24;;;;;;;;;7.00;5.00;;;;;5.72;62.07;100075.50;5028987;28;45488;-82
2022/04/01 07:59:49;;;;;;;;;6.00;4.00;;;;;5.54;62.05;100061.47;5026248;28;45635;-82
2022/04/01 08:02:16;;;;;;;;;6.00;6.00;;;;;5.59;61.65;100076.19;5025107;28;45879;-80
2022/04/01 08:04:42;;;;;;;;;9.00;5.67;;;;;5.66;61.54;100076.28;5030473;28;45486;-81
2022/04/01 08:07:08;;;;;;;;;9.00;8.33;;;;;5.74;62.03;100087.03;5011941;28;45572;-79
2022/04/01 08:09:34;;;;;;;;;8.00;6.33;;;;;5.64;60.82;100084.63;5019196;28;46628;-81
2022/04/01 08:12:03;;;;;;;;;7.67;7.67;;;;;5.58;60.91;100077.22;5030944;28;46698;-83
2022/04/01 08:14:34;;;;;;;;;8.67;8.33;;;;;5.68;59.59;100079.66;5032330;28;45558;-83
2022/04/01 08:17:00;;;;;;;;;7.00;7.00;;;;;5.71;59.70;100103.75;5012243;28;45912;-78
2022/04/01 08:19:25;;;;;;;;;5.00;5.00;;;;;5.71;61.06;100101.03;5025645;28;45627;-80
2022/04/01 08:21:51;;;;;;;;;9.00;9.00;;;;;5.64;60.58;100084.63;5019541;28;46537;-78
2022/04/01 08:24:16;;;;;;;;;6.00;5.67;;;;;5.86;58.76;100111.84;5020697;28;45816;-78
2022/04/01 08:26:45;;;;;;;;;6.00;6.00;;;;;5.63;59.06;100082.13;5014963;28;45847;-79
2022/04/01 08:29:10;;;;;;;;;9.00;9.00;;;;;5.77;58.99;100105.69;5011970;28;46225;-80
2022/04/01 08:31:37;;;;;;;;;10.33;10.33;;;;;5.74;58.58;100100.63;5021017;28;45878;-81
2022/04/01 08:34:02;;;;;;;;;5.00;5.00;;;;;5.91;58.85;100122.16;5023751;28;45727;-80
2022/04/01 08:36:28;;;;;;;;;7.33;7.00;;;;;5.98;58.87;100126.66;5020739;28;45608;-80
2022/04/01 08:38:53;;;;;;;;;5.33;5.00;;;;;6.07;57.88;100137.41;5009606;28;46617;-78
2022/04/01 08:41:21;;;;;;;;;7.67;7.33;;;;;5.99;57.75;100130.22;5019245;28;47263;-80
2022/04/01 08:43:48;;;;;;;;;8.67;6.67;;;;;6.03;58.40;100136.13;5009322;28;46617;-80
2022/04/01 08:46:15;;;;;;;;;7.33;7.33;;;;;6.11;57.88;100145.00;5024160;28;45888;-79
2022/04/01 08:48:42;;;;;;;;;8.67;8.67;;;;;6.03;57.81;100126.06;5028593;28;45993;-82
2022/04/01 08:51:08;;;;;;;;;8.67;8.67;;;;;6.08;57.56;100141.81;5030063;28;46468;-78
2022/04/01 08:53:37;;;;;;;;;9.33;9.33;;;;;6.03;57.51;100139.66;5028503;28;46241;-82
2022/04/01 08:56:06;;;;;;;;;9.00;8.00;;;;;6.09;57.05;100152.53;5014064;28;45665;-82
2022/04/01 08:58:33;;;;;;;;;8.33;8.33;;;;;6.20;55.96;100159.34;5006459;28;46648;-78
2022/04/01 09:01:00;;;;;;;;;9.33;5.67;;;;;6.23;56.71;100139.03;5023923;28;46004;-79
2022/04/01 09:03:27;;;;;;;;;4.00;4.00;;;;;6.34;56.24;100180.19;5028615;28;46133;-79
2022/04/01 09:05:56;;;;;;;;;7.33;7.33;;;;;6.35;56.66;100183.78;5026207;28;45603;-79
2022/04/01 09:08:35;;;;;;;;;6.33;6.33;;;;;6.38;56.20;100183.38;5025290;28;45804;-80
2022/04/01 09:11:06;;;;;;;;;9.00;7.33;;;;;6.55;56.36;100186.66;5022825;28;45834;-80
2022/04/01 09:13:47;;;;;;;;;9.00;9.00;;;;;6.67;55.83;100192.44;5025978;28;45629;-83
2022/04/01 09:16:27;;;;;;;;;8.67;8.67;;;;;6.54;55.25;100169.47;5027072;28;46539;-83
2022/04/01 09:19:02;;;;;;;;;9.00;9.00;;;;;6.53;55.08;100165.06;5015956;28;46157;-81
2022/04/01 09:21:39;;;;;;;;;9.67;7.67;;;;;6.74;54.55;100176.13;5022800;28;47672;-81
2022/04/01 09:24:10;;;;;;;;;10.67;7.33;;;;;6.99;55.06;100195.59;5031533;28;45603;-83
2022/04/01 09:26:53;;;;;;;;;8.67;8.67;;;;;6.83;54.71;100170.34;5026029;28;45516;-81
2022/04/01 09:29:22;;;;;;;;;8.67;6.33;;;;;7.11;53.71;100204.06;5004866;28;47041;-80
2022/04/01 09:31:54;;;;;;;;;8.33;8.33;;;;;6.84;54.11;100144.78;5031773;28;45545;-81
2022/04/01 09:34:31;;;;;;;;;7.00;7.00;;;;;6.98;53.84;100161.22;5032066;28;45762;-82
2022/04/01 09:36:57;;;;;;;;;8.67;7.67;;;;;7.19;53.74;100212.94;5031557;28;45506;-80
2022/04/01 09:39:23;;;;;;;;;9.33;9.33;;;;;7.16;54.46;100201.59;5030258;28;45716;-82
2022/04/01 09:41:58;;;;;;;;;10.67;9.00;;;;;7.30;53.77;100222.44;5014988;28;47740;-83
2022/04/01 09:44:37;;;;;;;;;7.33;7.00;;;;;7.13;53.58;100188.38;5031427;28;45597;-80
2022/04/01 09:47:05;;;;;;;;;8.67;7.00;;;;;7.40;53.37;100225.66;5015672;28;45452;-82
2022/04/01 09:49:36;;;;;;;;;7.00;7.00;;;;;7.30;54.11;100240.69;5026780;28;45752;-84
2022/04/01 09:52:36;;;;;;;;;;;;;;;;;;;;;
2022/04/01 09:55:06;;;;;;;;;10.33;10.33;;;;;7.10;53.39;100205.97;5029316;28;72736;-84
2022/04/01 09:57:33;;;;;;;;;13.00;10.00;;;;;7.12;52.58;100197.56;5030722;28;45368;-83
2022/04/01 10:00:01;;;;;;;;;7.67;7.67;;;;;7.16;53.86;100212.50;5027490;28;45884;-84
2022/04/01 10:02:29;;;;;;;;;8.67;8.67;;;;;7.38;53.62;100232.34;5028361;28;45411;-82
2022/04/01 10:04:55;;;;;;;;;8.33;8.33;;;;;7.42;52.76;100248.13;5014122;28;45505;-83
2022/04/01 10:07:33;;;;;;;;;9.67;9.00;;;;;7.36;52.85;100264.44;5037211;28;45423;-83
2022/04/01 10:10:09;;;;;;;;;10.33;8.33;;;;;7.31;52.79;100254.13;5033548;28;45352;-84
2022/04/01 10:12:52;;;;;;;;;8.33;8.33;;;;;7.20;53.29;100238.31;5031939;28;46673;-82
2022/04/01 10:15:19;;;;;;;;;8.00;7.33;;;;;7.36;52.52;100273.47;5034382;28;45776;-83
2022/04/01 10:17:54;;;;;;;;;10.00;8.33;;;;;7.36;52.91;100261.72;5010214;28;46168;-82
2022/04/01 10:20:22;;;;;;;;;9.00;9.00;;;;;7.30;53.31;100241.53;5033004;28;45584;-82
2022/04/01 10:22:52;;;;;;;;;9.33;9.33;;;;;7.23;52.53;100248.81;5026358;28;46097;-83
2022/04/01 10:25:49;;;;;;;;;11.00;11.00;;;;;7.21;52.52;100259.94;5031318;28;46105;-86
2022/04/01 10:28:27;;;;;;;;;9.00;9.00;;;;;7.16;52.85;100273.34;5007639;28;45526;-85
2022/04/01 10:31:20;;;;;;;;;14.00;10.00;;;;;6.99;52.22;100250.97;5027851;28;45951;-81
2022/04/01 10:37:45;;;;;;;;;10.00;10.00;;;;;6.83;53.09;100229.47;4918657;28;45448;-78
2022/04/01 10:43:52;;;;;;;;;9.67;8.00;;;;;6.93;52.95;100267.25;4936874;28;45911;-80
2022/04/01 10:46:27;;;;;;;;;13.00;13.00;;;;;7.03;52.08;100303.22;4970134;28;45684;-79
2022/04/01 10:52:48;;;;;;;;;;;;;;;;;;;;;
2022/04/01 10:55:18;;;;;;;;;33.25;26.50;;;;;6.78;53.21;100294.59;5011380;28;74118;-79
2022/04/01 10:57:47;;;;;;;;;11.67;11.67;;;;;6.84;54.34;100305.56;5026701;28;45788;-84
2022/04/01 11:03:35;;;;;;;;;10.33;10.33;;;;;6.51;52.68;100221.63;5034281;28;45917;-84
2022/04/01 11:06:31;;;;;;;;;15.00;12.67;;;;;7.06;53.56;100306.38;5014554;28;46745;-83
2022/04/01 11:12:33;;;;;;;;;11.33;10.33;;;;;7.14;53.67;100318.19;4975998;28;45547;-87
2022/04/01 11:15:57;;;;;;;;;10.67;10.67;;;;;6.95;53.47;100293.28;4961877;28;45862;-87
2022/04/01 11:18:59;;;;;;;;;8.33;8.33;;;;;7.01;52.69;100313.50;4948803;28;45773;-86
2022/04/01 11:21:44;;;;;;;;;11.00;11.00;;;;;7.06;52.20;100319.19;5011069;28;46484;-84
2022/04/01 11:24:35;;;;;;;;;12.00;11.00;;;;;7.01;53.68;100324.41;5015765;28;46051;-87
2022/04/01 11:27:26;;;;;;;;;10.67;10.67;;;;;7.00;53.07;100333.59;5042579;28;45662;-87
2022/04/01 11:30:24;;;;;;;;;12.00;11.00;;;;;6.96;52.98;100311.34;5016643;28;45637;-86
2022/04/01 11:34:01;;;;;;;;;;;;;;;;;;;;;
2022/04/01 11:36:37;;;;;;;;;12.00;12.00;;;;;7.22;53.04;100329.81;4994698;28;73231;-83
2022/04/01 11:39:19;;;;;;;;;10.67;10.67;;;;;7.23;52.14;100339.69;5035004;28;45660;-83
2022/04/01 11:41:47;;;;;;;;;11.67;11.67;;;;;7.18;53.75;100344.03;5024129;28;45628;-83
2022/04/01 11:44:14;;;;;;;;;11.33;10.33;;;;;7.01;52.69;100316.22;5022348;28;47199;-82
2022/04/01 11:46:40;;;;;;;;;11.33;11.00;;;;;7.20;52.56;100336.50;5026034;28;46096;-82
2022/04/01 11:49:10;;;;;;;;;9.33;8.67;;;;;6.73;53.10;100267.94;5010819;28;45612;-82
2022/04/01 11:51:39;;;;;;;;;10.00;10.00;;;;;6.98;53.08;100320.16;5029382;28;45402;-83
2022/04/01 11:54:07;;;;;;;;;13.67;12.33;;;;;7.21;53.44;100340.91;5020899;28;47045;-84
2022/04/01 11:56:32;;;;;;;;;7.67;7.33;;;;;7.14;53.08;100335.41;5027981;28;45513;-82
2022/04/01 11:59:00;;;;;;;;;11.00;10.00;;;;;7.13;53.79;100344.63;5004219;28;45401;-80
2022/04/01 12:01:32;;;;;;;;;14.00;12.33;;;;;7.14;52.18;100335.41;5027266;28;45699;-79
2022/04/01 12:04:09;;;;;;;;;11.00;10.67;;;;;7.36;52.63;100354.47;5008384;28;47135;-80
2022/04/01 12:09:33;;;;;;;;;12.00;12.00;;;;;7.36;52.73;100365.38;5016340;28;45701;-78
2022/04/01 12:12:01;;;;;;;;;12.33;11.67;;;;;7.28;51.87;100360.09;5030925;28;45719;-79
2022/04/01 12:14:27;;;;;;;;;11.33;11.33;;;;;7.28;53.44;100368.25;5002523;28;47308;-79
2022/04/01 12:16:52;;;;;;;;;12.00;11.00;;;;;7.33;52.61;100363.03;5019391;28;45577;-80
2022/04/01 12:19:22;;;;;;;;;12.00;11.00;;;;;7.39;51.56;100365.81;5005311;28;45417;-79
2022/04/01 12:21:54;;;;;;;;;12.00;10.33;;;;;7.48;51.64;100371.97;5022952;28;45990;-80
2022/04/01 12:24:20;;;;;;;;;15.67;10.67;;;;;7.59;51.89;100382.34;5002326;28;45550;-79